createdAt,value
2023-03-14T00:05:16.030Z,96586.19
2023-03-14T00:07:49.280Z,96584.50
2023-03-14T00:10:23.047Z,96583.78
2023-03-14T00:12:56.282Z,96574.13
2023-03-14T00:15:30.872Z,96570.78
2023-03-14T00:18:04.601Z,96556.78
2023-03-14T00:20:40.047Z,96560.41
2023-03-14T00:30:26.004Z,96502.78
2023-03-14T00:35:48.065Z,96518.75
2023-03-14T00:38:21.947Z,96488.50
2023-03-14T00:40:55.053Z,96454.91
2023-03-14T00:43:28.263Z,96408.69
2023-03-14T00:46:02.031Z,96375.09
2023-03-14T00:59:14.033Z,96369.38
2023-03-14T01:01:47.459Z,96350.75
2023-03-14T01:04:21.037Z,96360.72
2023-03-14T01:06:55.714Z,96363.22
2023-03-14T01:09:29.036Z,96357.19
2023-03-14T01:26:06.996Z,96355.28
2023-03-14T01:28:48.027Z,96350.81
2023-03-14T01:31:22.971Z,96349.13
2023-03-14T01:33:56.050Z,96337.09
2023-03-14T01:36:31.711Z,96366.22
2023-03-14T01:39:07.037Z,96350.28
2023-03-14T01:52:24.040Z,96357.56
2023-03-14T01:55:08.652Z,96371.69
2023-03-14T01:57:56.017Z,96374.34
2023-03-14T02:00:29.561Z,96382.19
2023-03-14T02:03:10.093Z,96373.22
2023-03-14T02:05:45.574Z,96374.06
2023-03-14T02:18:40.018Z,96331.66
2023-03-14T02:22:01.857Z,96329.66
2023-03-14T02:24:54.669Z,96322.69
2023-03-14T02:27:37.040Z,96324.34
2023-03-14T02:30:18.543Z,96328.69
2023-03-14T02:43:58.981Z,96321.69
2023-03-14T02:46:43.039Z,96326.88
2023-03-14T02:49:18.153Z,96320.72
2023-03-14T02:51:53.037Z,96313.72
2023-03-14T02:54:26.529Z,96314.72
2023-03-14T02:57:00.000Z,96313.88
2023-03-14T02:59:33.262Z,96310.38
2023-03-14T03:12:30.993Z,96304.97
2023-03-14T03:15:14.015Z,96295.31
2023-03-14T03:17:47.325Z,96298.13
2023-03-14T03:20:21.010Z,96303.59
2023-03-14T03:22:54.310Z,96303.59
2023-03-14T03:25:28.262Z,96313.25
2023-03-14T03:38:43.030Z,96288.53
2023-03-14T03:41:16.397Z,96295.84
2023-03-14T03:43:50.043Z,96293.28
2023-03-14T03:46:24.521Z,96296.09
2023-03-14T03:49:03.025Z,96280.47
2023-03-14T04:05:39.994Z,96326.69
2023-03-14T04:08:21.030Z,96323.31
2023-03-14T04:10:57.541Z,96323.31
2023-03-14T04:13:53.016Z,96311.97
2023-03-14T04:16:27.267Z,96299.84
2023-03-14T04:19:08.032Z,96292.88
2023-03-14T04:32:20.048Z,96269.81
2023-03-14T04:34:53.949Z,96270.78
2023-03-14T04:37:27.035Z,96273.44
2023-03-14T04:40:00.408Z,96278.91
2023-03-14T04:42:37.013Z,96260.47
2023-03-14T04:45:10.792Z,96261.06
2023-03-14T04:58:02.985Z,96252.16
2023-03-14T05:00:43.014Z,96254.94
2023-03-14T05:03:40.872Z,96257.91
2023-03-14T05:06:26.000Z,96265.84
2023-03-14T05:09:24.905Z,96270.31
2023-03-14T05:26:06.005Z,96294.66
2023-03-14T05:28:47.996Z,96292.13
2023-03-14T05:31:49.863Z,96294.94
2023-03-14T05:34:41.784Z,96292.28
2023-03-14T05:37:41.991Z,96290.50
2023-03-14T05:40:24.755Z,96282.38
2023-03-14T05:53:38.153Z,96267.00
2023-03-14T05:56:30.008Z,96262.50
2023-03-14T05:59:22.081Z,96251.88
2023-03-14T06:02:14.061Z,96241.97
2023-03-14T06:05:04.491Z,96226.72
2023-03-14T06:18:03.977Z,96252.81
2023-03-14T06:20:45.003Z,96256.34
2023-03-14T06:23:26.207Z,96270.28
2023-03-14T06:26:07.020Z,96283.56
2023-03-14T06:28:40.558Z,96283.44
2023-03-14T06:31:14.070Z,96287.63
2023-03-14T06:44:49.982Z,96305.72
2023-03-14T06:47:25.606Z,96308.09
2023-03-14T06:50:03.002Z,96308.81
2023-03-14T06:52:37.575Z,96297.88
2023-03-14T06:55:12.994Z,96303.19
2023-03-14T06:57:47.784Z,96299.25
2023-03-14T07:00:25.016Z,96286.66
2023-03-14T07:13:35.014Z,96342.28
2023-03-14T07:16:11.022Z,96339.19
2023-03-14T07:18:45.009Z,96330.06
2023-03-14T07:21:18.312Z,96325.47
2023-03-14T07:23:51.981Z,96332.97
2023-03-14T07:40:28.968Z,96334.31
2023-03-14T07:43:11.837Z,96333.03
2023-03-14T07:45:50.939Z,96329.06
2023-03-14T07:48:30.983Z,96317.44
2023-03-14T07:51:04.885Z,96318.97
2023-03-14T07:53:38.017Z,96316.84
2023-03-14T07:56:13.184Z,96313.22
2023-03-14T08:05:36.147Z,96325.47
2023-03-14T08:08:09.296Z,96330.63
2023-03-14T08:10:43.036Z,96334.66
2023-03-14T08:13:19.387Z,96334.38
2023-03-14T08:15:56.005Z,96335.06
2023-03-14T08:18:29.251Z,96333.06
2023-03-14T08:21:08.991Z,96337.13
2023-03-14T08:31:41.040Z,96336.09
2023-03-14T08:34:23.203Z,96327.16
2023-03-14T08:36:56.300Z,96331.50
2023-03-14T08:39:30.001Z,96324.47
2023-03-14T08:42:03.979Z,96329.81
2023-03-14T08:44:39.334Z,96308.34
2023-03-14T08:58:35.989Z,96303.19
2023-03-14T09:01:11.310Z,96319.00
2023-03-14T09:03:45.071Z,96309.06
2023-03-14T09:06:18.298Z,96316.59
2023-03-14T09:08:51.994Z,96323.28
2023-03-14T09:11:25.417Z,96313.19
2023-03-14T09:14:00.988Z,96318.22
2023-03-14T09:27:18.004Z,96321.19
2023-03-14T09:29:53.128Z,96319.16
2023-03-14T09:32:26.036Z,96324.22
2023-03-14T09:34:59.270Z,96329.22
2023-03-14T09:37:32.984Z,96323.59
2023-03-14T09:40:16.304Z,96322.44
2023-03-14T09:53:20.950Z,96322.88
2023-03-14T09:56:05.001Z,96314.44
2023-03-14T09:58:43.600Z,96306.78
2023-03-14T10:01:32.853Z,96304.50
2023-03-14T10:04:13.430Z,96314.53
2023-03-14T10:20:39.998Z,96326.00
2023-03-14T10:23:26.964Z,96328.69
2023-03-14T10:26:13.977Z,96317.00
2023-03-14T10:28:52.506Z,96320.34
2023-03-14T10:31:32.978Z,96320.56
2023-03-14T10:34:10.246Z,96315.88
2023-03-14T10:47:09.963Z,96330.09
2023-03-14T10:49:49.974Z,96318.44
2023-03-14T10:52:31.095Z,96317.63
2023-03-14T10:55:20.836Z,96309.44
2023-03-14T10:57:54.236Z,96306.78
2023-03-14T11:00:30.003Z,96311.13
2023-03-14T11:13:52.981Z,96331.09
2023-03-14T11:16:43.111Z,96324.09
2023-03-14T11:19:42.120Z,96328.91
2023-03-14T11:22:26.332Z,96321.06
2023-03-14T11:25:30.008Z,96326.72
2023-03-14T11:39:06.015Z,96315.00
2023-03-14T11:41:42.915Z,96306.84
2023-03-14T11:44:26.991Z,96315.72
2023-03-14T11:47:08.541Z,96314.84
2023-03-14T11:49:56.964Z,96313.03
2023-03-14T11:52:37.480Z,96314.72
2023-03-14T11:55:30.809Z,96304.19
2023-03-14T12:05:50.953Z,96307.25
2023-03-14T12:08:49.966Z,96296.41
2023-03-14T12:11:36.033Z,96299.78
2023-03-14T12:14:31.971Z,96293.44
2023-03-14T12:17:18.088Z,96289.78
2023-03-14T12:20:13.027Z,96284.47
2023-03-14T12:33:41.991Z,96277.28
2023-03-14T12:36:59.789Z,96274.78
2023-03-14T12:39:51.982Z,96283.59
2023-03-14T12:42:46.012Z,96275.78
2023-03-14T12:45:33.059Z,96265.09
2023-03-14T12:59:25.653Z,96253.47
2023-03-14T13:02:14.032Z,96260.50
2023-03-14T13:04:59.009Z,96258.47
2023-03-14T13:07:36.489Z,96256.81
2023-03-14T13:10:27.979Z,96242.47
2023-03-14T13:13:21.008Z,96247.00
2023-03-14T13:16:07.081Z,96240.50
2023-03-14T13:26:05.954Z,96217.72
2023-03-14T13:28:45.977Z,96226.75
2023-03-14T13:31:25.928Z,96226.22
2023-03-14T13:34:08.107Z,96231.25
2023-03-14T13:36:41.284Z,96231.75
2023-03-14T13:39:20.985Z,96222.25
2023-03-14T13:52:50.189Z,96220.19
2023-03-14T13:55:23.445Z,96215.88
2023-03-14T13:57:59.961Z,96211.56
2023-03-14T14:00:33.396Z,96219.56
2023-03-14T14:03:08.225Z,96217.06
2023-03-14T14:05:45.612Z,96219.22
2023-03-14T14:19:26.144Z,96217.06
2023-03-14T14:22:08.994Z,96202.91
2023-03-14T14:24:42.680Z,96201.88
2023-03-14T14:27:25.643Z,96201.50
2023-03-14T14:30:03.139Z,96201.50
2023-03-14T14:32:45.014Z,96198.09
2023-03-14T14:35:25.716Z,96202.28
2023-03-14T14:48:26.962Z,96177.47
2023-03-14T14:51:09.986Z,96171.03
2023-03-14T14:53:44.313Z,96185.59
2023-03-14T14:56:25.982Z,96174.94
2023-03-14T14:59:02.079Z,96173.28
2023-03-14T15:15:06.985Z,96181.94
2023-03-14T15:17:40.338Z,96185.31
2023-03-14T15:20:21.001Z,96184.91
2023-03-14T15:22:54.241Z,96184.44
2023-03-14T15:25:51.431Z,96181.84
2023-03-14T15:39:42.982Z,96170.31
2023-03-14T15:42:18.161Z,96180.72
2023-03-14T15:44:50.969Z,96181.47
2023-03-14T15:47:24.313Z,96176.03
2023-03-14T15:49:57.957Z,96184.22
2023-03-14T15:52:31.214Z,96183.00
2023-03-14T15:55:04.985Z,96184.88
2023-03-14T16:08:16.995Z,96198.41
2023-03-14T16:10:50.248Z,96202.28
2023-03-14T16:13:24.212Z,96200.00
2023-03-14T16:16:00.131Z,96213.75
2023-03-14T16:18:37.001Z,96217.63
2023-03-14T16:21:13.449Z,96223.16
2023-03-14T16:34:10.943Z,96222.06
2023-03-14T16:36:50.964Z,96216.38
2023-03-14T16:39:24.324Z,96217.88
2023-03-14T16:41:59.247Z,96220.38
2023-03-14T16:44:47.878Z,96210.88
2023-03-14T17:01:13.034Z,96226.91
2023-03-14T17:03:49.098Z,96229.91
2023-03-14T17:06:26.022Z,96224.91
2023-03-14T17:08:59.238Z,96231.41
2023-03-14T17:11:32.986Z,96243.41
2023-03-14T17:14:06.272Z,96246.56
2023-03-14T17:26:50.936Z,96307.91
2023-03-14T17:29:30.957Z,96327.53
2023-03-14T17:32:06.465Z,96342.84
2023-03-14T17:34:39.951Z,96384.16
2023-03-14T17:37:13.344Z,96453.13
2023-03-14T17:39:47.001Z,96473.56
2023-03-14T17:53:37.991Z,96546.91
2023-03-14T17:56:11.345Z,96569.25
2023-03-14T17:58:44.963Z,96568.50
2023-03-14T18:01:20.357Z,96587.91
2023-03-14T18:03:54.033Z,96602.09
2023-03-14T18:06:27.646Z,96604.78
2023-03-14T18:09:02.991Z,96648.28
2023-03-14T18:11:36.262Z,96679.00
2023-03-14T18:21:00.203Z,96764.28
2023-03-14T18:23:33.412Z,96802.03
2023-03-14T18:26:08.962Z,96815.16
2023-03-14T18:28:42.219Z,96839.38
2023-03-14T18:31:20.079Z,96848.16
2023-03-14T18:33:55.525Z,96880.81
2023-03-14T18:36:28.988Z,96896.31
2023-03-14T18:46:58.979Z,96929.91
2023-03-14T18:49:40.978Z,96946.38
2023-03-14T18:52:14.178Z,96964.25
2023-03-14T18:54:40.908Z,96977.75
2023-03-14T18:57:20.975Z,97003.84
2023-03-14T18:59:54.328Z,97019.78
2023-03-14T19:16:11.000Z,97083.50
2023-03-14T19:18:44.173Z,97084.47
2023-03-14T19:21:21.256Z,97092.66
2023-03-14T19:23:54.572Z,97106.19
2023-03-14T19:26:27.937Z,97114.16
2023-03-14T19:29:01.921Z,97132.25
2023-03-14T19:31:37.020Z,97142.38
2023-03-14T19:41:30.926Z,97149.56
2023-03-14T19:44:12.940Z,97163.78
2023-03-14T19:46:48.120Z,97173.56
2023-03-14T19:49:20.950Z,97179.22
2023-03-14T19:51:54.196Z,97184.03
2023-03-14T19:54:27.967Z,97201.84
2023-03-14T20:07:46.976Z,97208.28
2023-03-14T20:10:24.613Z,97214.78
2023-03-14T20:12:58.365Z,97215.53
2023-03-14T20:15:31.485Z,97228.06
2023-03-14T20:18:04.965Z,97235.50
2023-03-14T20:20:40.704Z,97234.88
2023-03-14T20:34:05.942Z,97282.22
2023-03-14T20:36:45.955Z,97285.63
2023-03-14T20:39:19.796Z,97292.00
2023-03-14T20:41:52.966Z,97289.44
2023-03-14T20:44:26.237Z,97304.50
2023-03-14T20:46:59.997Z,97292.31
2023-03-14T20:49:35.520Z,97299.44
2023-03-14T21:02:23.910Z,97318.66
2023-03-14T21:05:06.031Z,97315.38
2023-03-14T21:07:39.216Z,97325.34
2023-03-14T21:10:15.942Z,97333.16
2023-03-14T21:12:49.167Z,97345.88
2023-03-14T21:15:22.974Z,97345.88
2023-03-14T21:31:07.538Z,97376.97
2023-03-14T21:33:34.474Z,97380.56
2023-03-14T21:36:15.938Z,97381.63
2023-03-14T21:38:49.256Z,97386.28
2023-03-14T21:41:22.942Z,97389.03
2023-03-14T21:54:34.920Z,97416.53
2023-03-14T21:57:09.706Z,97415.03
2023-03-14T21:59:44.933Z,97427.31
2023-03-14T22:02:19.639Z,97423.19
2023-03-14T22:04:52.953Z,97418.72
2023-03-14T22:07:26.170Z,97424.97
2023-03-14T22:10:00.952Z,97445.47
2023-03-14T22:23:10.945Z,97462.69
2023-03-14T22:25:47.425Z,97467.91
2023-03-14T22:28:27.949Z,97468.56
2023-03-14T22:31:03.351Z,97471.09
2023-03-14T22:33:37.136Z,97475.72
2023-03-14T22:36:11.208Z,97480.38
2023-03-14T22:49:01.905Z,97518.63
2023-03-14T22:51:41.912Z,97517.16
2023-03-14T22:54:15.130Z,97518.19
2023-03-14T22:56:41.886Z,97525.34
2023-03-14T22:59:21.930Z,97530.84
2023-03-14T23:15:58.909Z,97555.53
2023-03-14T23:18:38.914Z,97552.78
2023-03-14T23:21:16.190Z,97555.31
2023-03-14T23:23:56.945Z,97566.84
2023-03-14T23:26:30.251Z,97561.84
2023-03-14T23:29:03.941Z,97576.84
2023-03-14T23:31:39.297Z,97577.13
2023-03-14T23:41:22.924Z,97592.25
2023-03-14T23:43:56.233Z,97590.44
2023-03-14T23:46:29.927Z,97604.72
2023-03-14T23:49:05.149Z,97600.47
2023-03-14T23:51:38.931Z,97603.22
2023-03-14T23:54:12.249Z,97598.00
2023-03-14T23:56:45.927Z,97607.81
